Sturgeon Bay, WI

6:15 PM CDT on July 29, 2014 (GMT -0500)
Door County Cherryland (KSUE) Elev 725 ft | 44.84 °N, 87.42 °W | Change Station
Active Advisory: Special Weather Statement

Current weather conditions updated 20 minutes ago

Clear
Clear
68 °F
Feels Like 68 °F
N
8
Wind Variable Wind from SSW

Tomorrow is forecast to be nearly the same temperature as today. Isolated thunderstorms tomorrow night.

Today
High -- | Low -- °F
--% Chance of Precip.
Yesterday
High -- | Low -- °F
Precip. -- in
5:32 AM 8:19 PM
Waxing Crescent, 8% visible
Pressure 29.97 in
Visibility 10.0 miles
Clouds Clear
Dew Point 57 °F
Humidity 68%
Rainfall 0.00 in
Snow Depth Not available.
UV 2 out of 12
Pollen 7.00 out of 12
Air Quality Not available.
Flu Activity Not available.
METAR KSUE 292255Z AUTO 21007KT 10SM CLR 20/14 A2997 RMK AO1

More Conditions Fewer Conditions

Pressure 29.97 in
Visibility 10.0 miles
Clouds Clear
Dew Point 57 °F
Humidity 68%
Rainfall 0.00 in
Snow Depth Not available.
UV 2 out of 12
Pollen 7.00 out of 12
Air Quality Not available.
Flu Activity Not available.
METAR KSUE 292255Z AUTO 21007KT 10SM CLR 20/14 A2997 RMK AO1

More Conditions Fewer Conditions

10-Day Weather Forecast

Almanac

Astronomy

Jul. 29, 2014 Rise Set
Actual Time 5:32 AM CDT 8:19 PM CDT
Civil Twilight 4:58 AM CDT 8:53 PM CDT
Nautical Twilight 4:14 AM CDT 9:36 PM CDT
Astronomical Twilight 3:24 AM CDT 10:25 PM CDT
Moon 8:17 AM CDT 9:21 PM CDT
Length of Visible Light 15h 55m
Length of Day
14h 47m
Tomorrow will be 2m 18s shorter.
Waxing Crescent, 8% of the Moon is Illuminated
Today
Waxing Crescent
Aug 3
First Quarter
Aug 10
Full
Aug 17
Last Quarter
Aug 25
New

Today's Extremes

State Highs State Lows

Community

WunderPhotos

Upload Photos

1,738,909 photos uploaded!

Nearby

Snow Depth

Station Depth Elevation
No new snow has been reported.

Earthquake Activity

City Distance Mag. Time & Date
No recent earthquake activity has been reported nearby.
Minimum magnitude displayed is 2.5.

Coastal Water Temperatures

Place Temperature
No Stations Reporting

Nearby Weather Stations

Station Location Temp. Dew Point Humidity Wind Precip. Elev Updated Type
Leif Everson Observatory, Sturgeon Bay, WI 68.8 °F 61 °F 75% SW  at  3.0 mph 0.00 in / hr 636 ft 6:12 PM CDT Normal
Egg Harbor WI, Egg Harbor, WI 69.4 °F 64 °F 82% SW  at  0.0 mph 0.00 in / hr 650 ft 6:14 PM CDT Normal
MARITIME , Algoma, WI - - - SW  at  8 mph 0.00 in / hr 587 ft 5:51 PM CDT MADIS
MARITIME , Oconto, WI 66 °F - - WSW  at  9 mph 0.00 in / hr 582 ft 5:30 PM CDT MADIS
Tyco Fire Protection, Marinette, WI 69.3 °F 61 °F 74% SSE  at  2.0 mph 0.00 in / hr 617 ft 6:14 PM CDT Normal

Show More Stations Show Fewer Stations